| Temp | 43.6 °F 2.8 |
|---|---|
| RH | 84 % 10 |
| Dew Pt | 38.9 °F 0.2 |
| Wet Bulb | 41.1 °F 1.2 |
| Wind Dir | SE | 143 ° |
| Wind Spd | 9.9 mph 10.5 |
| Wind Gust | 19.8 mph 9.3 |
| WindChill | 38.6 °F 7.2 |
| Daily Min Temp | 43.5 °F 2.8 |
| Daily Max Temp | 44.0 °F 3.0 |
| Latest Rain | 0.00 In |
| Daily Rain | 0.00 In |
| Date & Time | Temp (°F) | RH (%) | Dew Pt (°F) | Wet Bulb (°F) | Wind Dir (°) | Wind Spd (mph) | Wind Gust (mph) | WindChill (°F) | Latest Rain (In) | Daily Min Temp (°F) | Daily Max Temp (°F) | Daily Rain (In) |
|---|---|---|---|---|---|---|---|---|---|---|---|---|
| 9/6/26 - 0000 | 43.9 | 83 | 39.0 | 41.3 | SE | 135 | 13.5 | 33.1 | 37.3 | 0.00 | 40.6 | 51.9 | 0.00 |
| 9/5/26 - 2300 | 43.3 | 91 | 40.8 | 42.0 | SE | 134 | 10.2 | 26.7 | 38.4 | 0.00 | 40.6 | 51.9 | 0.00 |
| 9/5/26 - 2200 | 43.0 | 94 | 41.4 | 42.1 | S | 186 | 8.4 | 33.7 | 38.2 | 0.00 | 40.6 | 51.9 | 0.00 |
| 9/5/26 - 2100 | 42.4 | 94 | 40.7 | 41.4 | S | 187 | 9.8 | 29.5 | 37.2 | 0.00 | 40.6 | 51.9 | 0.00 |
| 9/5/26 - 2000 | 42.5 | 91 | 40.1 | 41.2 | S | 187 | 12.6 | 24.8 | 36.4 | 0.00 | 40.6 | 51.9 | 0.00 |
| 9/5/26 - 1900 | 43.3 | 90 | 40.6 | 41.8 | S | 186 | 12.4 | 25.6 | 38.3 | 0.00 | 40.6 | 51.9 | 0.00 |
| 9/5/26 - 1800 | 45.2 | 84 | 40.8 | 42.8 | SSW | 201 | 11.6 | 22.7 | 40.5 | 0.00 | 40.6 | 51.9 | 0.00 |
| 9/5/26 - 1700 | 47.1 | 77 | 40.4 | 43.4 | SSW | 196 | 11.2 | 26.4 | 43.8 | 0.00 | 40.6 | 51.9 | 0.00 |
| 9/5/26 - 1600 | 48.6 | 74 | 40.5 | 44.2 | SSW | 192 | 8.8 | 20.7 | 45.6 | 0.00 | 40.6 | 51.9 | 0.00 |
| 9/5/26 - 1500 | 51.0 | 69 | 41.2 | 45.6 | SSW | 204 | 8.8 | 28.5 | 46.1 | 0.00 | 40.6 | 51.9 | 0.00 |
| 9/5/26 - 1400 | 48.6 | 76 | 41.5 | 44.6 | S | 182 | 6.7 | 22.3 | 45.5 | 0.00 | 40.6 | 49.9 | 0.00 |
| 9/5/26 - 1300 | 47.6 | 77 | 40.6 | 43.7 | SSE | 158 | 9.1 | 19.2 | 43.9 | 0.00 | 40.6 | 48.8 | 0.00 |
| 9/5/26 - 1200 | 47.2 | 77 | 40.5 | 43.6 | SSE | 162 | 11.5 | 21.0 | 41.5 | 0.00 | 40.6 | 47.7 | 0.00 |
| 9/5/26 - 1100 | 45.5 | 82 | 40.3 | 42.7 | SSE | 156 | 12.4 | 29.7 | 39.4 | 0.00 | 40.6 | 46.6 | 0.00 |
| 9/5/26 - 1000 | 44.0 | 84 | 39.6 | 41.6 | SSE | 165 | 11.9 | 20.3 | 37.5 | 0.00 | 40.6 | 44.5 | 0.00 |
| 9/5/26 - 0900 | 43.0 | 87 | 39.3 | 41.0 | SSE | 153 | 11.2 | 21.3 | 36.2 | 0.00 | 40.6 | 43.4 | 0.00 |
| 9/5/26 - 0800 | 41.6 | 93 | 39.7 | 40.6 | SSE | 154 | 11.5 | 23.6 | 35.2 | 0.00 | 40.6 | 42.0 | 0.00 |
| 9/5/26 - 0700 | 41.3 | 91 | 38.7 | 40.0 | SE | 145 | 15.5 | 25.8 | 33.1 | 0.00 | 40.6 | 41.3 | 0.00 |
| 9/5/26 - 0600 | 41.0 | 92 | 38.9 | 39.9 | SE | 139 | 16.5 | 26.9 | 32.7 | 0.00 | 40.6 | 41.3 | 0.00 |
| 9/5/26 - 0500 | 41.1 | 92 | 39.0 | 40.0 | SE | 138 | 17.1 | 25.7 | 32.8 | 0.00 | 40.6 | 41.3 | 0.00 |
| 9/5/26 - 0400 | 41.0 | 93 | 39.2 | 40.1 | SE | 141 | 15.1 | 26.2 | 33.0 | 0.00 | 40.6 | 41.2 | 0.00 |
| 9/5/26 - 0300 | 40.9 | 93 | 39.1 | 40.0 | SE | 146 | 16.5 | 31.4 | 32.6 | 0.00 | 40.6 | 41.2 | 0.00 |
| 9/5/26 - 0200 | 40.8 | 95 | 39.4 | 40.1 | SE | 139 | 20.1 | 30.3 | 31.8 | 0.00 | 40.6 | 41.2 | 0.00 |
| 9/5/26 - 0100 | 40.9 | 95 | 39.5 | 40.2 | SE | 142 | 20.0 | 29.2 | 31.6 | 0.00 | 40.6 | 41.0 | 0.00 |
| 9/5/26 - 0000 | 40.9 | 93 | 39.1 | 40.0 | SE | 145 | 18.5 | 28.9 | 31.8 | 0.00 | 40.2 | 44.1 | 0.14 |
| Max | 51.0 | 95 | 41.5 | 45.6 | - | 20.1 | 33.7 | 46.1 | 0.00 | 40.6 | 51.9 | 0.14 |
| Avg | 43.8 | 87 | 40.0 | 41.8 | - | 12.8 | 26.1 | 37.6 | 0.00 | - | - | - |
| Min | 40.8 | 69 | 38.7 | 39.9 | - | 6.7 | 19.2 | 31.6 | 0.00 | 40.2 | 41.0 | 0.00 |
| Total | - | - | - | - | - | - | - | - | 0.00 | - | - | - |
| Date | Daily Max Temp (°F) | Time of Max Temp | Daily Min Temp (°F) | Time of Min Temp | Daily Rain (In) | Season Precip (In) | Wind Spd (mph) | Daily Max Wind (mph) | Time of Max Wind | Max Wind Dir (°) | Daily Max RH (%) | Daily Min RH (%) | Wet Bulb (°F) | WetB Hrs <28F (hrs) | MinBV Day (V) |
|---|---|---|---|---|---|---|---|---|---|---|---|---|---|---|---|
| 9/5/26 | 51.9 | 1458 | 40.6 | 0020 | 0.00 | 103.00 | 12.6 | 33.7 | 2149 | NW | 320 | 96 | 65 | 41.8 | 0.0 | 13.2 |
| 9/4/26 | 44.1 | 1438 | 40.2 | 1006 | 0.14 | 103.00 | 14.0 | 40.2 | 0620 | SE | 139 | 100 | 89 | 40.9 | 0.0 | 13.3 |
| 9/3/26 | 45.5 | 1225 | 39.6 | 0432 | 0.04 | 102.90 | 10.7 | 41.3 | 2022 | E | 85 | 100 | 46 | 38.5 | 0.0 | 13.3 |
| 9/2/26 | 49.2 | 1717 | 36.3 | 0513 | 0.00 | 102.80 | 11.0 | 38.5 | 0210 | S | 170 | 88 | 57 | 37.6 | 0.0 | 13.3 |
| 9/1/26 | 56.8 | 1305 | 37.4 | 2212 | 0.00 | 102.80 | 13.4 | 52.7 | 1522 | ENE | 67 | 79 | 30 | 39.5 | 0.0 | 13.1 |
| 8/31/26 | 67.6 | 1342 | 48.7 | 2359 | 0.00 | 102.80 | 10.4 | 29.4 | 2102 | SSE | 168 | 66 | 25 | 44.3 | 0.0 | 13.0 |
| 8/30/26 | 68.6 | 1530 | 49.0 | 0351 | 0.00 | 102.80 | 8.6 | 24.1 | 0858 | SSW | 204 | 54 | 21 | 43.4 | 0.0 | 13.1 |
| 8/29/26 | 63.4 | 1511 | 48.3 | 0641 | 0.00 | 102.80 | 9.9 | 29.4 | 1106 | SE | 142 | 92 | 32 | 46.2 | 0.0 | 12.7 |
| 8/28/26 | 56.2 | 0149 | 48.4 | 1047 | 0.11 | 102.80 | 8.6 | 18.6 | 2204 | S | 174 | 98 | 43 | 47.9 | 0.0 | 13.2 |
| 8/27/26 | 71.3 | 1303 | 55.4 | 2357 | 0.00 | 102.70 | 9.4 | 27.0 | 0208 | SW | 231 | 55 | 23 | 46.5 | 0.0 | 13.0 |
| 8/26/26 | 72.4 | 1510 | 58.2 | 0359 | 0.00 | 102.70 | 10.5 | 34.9 | 1358 | SW | 226 | 64 | 28 | 50.4 | 0.0 | 13.0 |
| 8/25/26 | 71.2 | 1651 | 55.6 | 0348 | 0.00 | 102.70 | 9.2 | 31.0 | 0927 | SSW | 203 | 51 | 33 | 49.0 | 0.0 | 13.0 |
| 8/24/26 | 73.5 | 1351 | 57.4 | 2302 | 0.00 | 102.70 | 9.4 | 30.3 | 1405 | WSW | 245 | 53 | 34 | 49.9 | 0.0 | 13.0 |
| 8/23/26 | 72.6 | 1337 | 57.4 | 0236 | 0.00 | 102.70 | 10.6 | 27.1 | 1409 | NNW | 329 | 57 | 29 | 49.7 | 0.0 | 12.6 |
| 8/22/26 | 70.8 | 1242 | 57.6 | 0704 | 0.00 | 102.70 | 8.5 | 30.2 | 1426 | SSW | 202 | 51 | 32 | 48.6 | 0.0 | 12.6 |
| 8/21/26 | 74.4 | 1241 | 59.4 | 2333 | 0.00 | 102.70 | 11.8 | 26.1 | 1956 | WSW | 240 | 49 | 26 | 49.3 | 0.0 | 13.0 |
| 8/20/26 | 75.3 | 1424 | 60.1 | 2030 | 0.00 | 102.70 | 11.3 | 28.3 | 1457 | W | 280 | 41 | 20 | 47.9 | 0.0 | 13.0 |
| 8/19/26 | 77.0 | 1346 | 57.9 | 0626 | 0.00 | 102.70 | 6.7 | 22.9 | 2247 | SSW | 213 | 45 | 21 | 49.6 | 0.0 | 13.0 |
| 8/18/26 | 74.9 | 1709 | 57.0 | 0130 | 0.00 | 102.70 | 6.7 | 20.0 | 1320 | SW | 231 | 48 | 21 | 48.4 | 0.0 | 13.0 |
| 8/17/26 | 70.9 | 1147 | 55.6 | 0557 | 0.00 | 102.70 | 9.4 | 33.8 | 1533 | SSW | 196 | 54 | 32 | 48.4 | 0.0 | 13.0 |
| 8/16/26 | 72.0 | 1442 | 53.7 | 0051 | 0.00 | 102.70 | 8.9 | 23.5 | 0442 | SSE | 168 | 52 | 25 | 46.2 | 0.0 | 13.0 |
| 8/15/26 | 65.5 | 1623 | 50.6 | 0703 | 0.00 | 102.70 | 12.3 | 29.8 | 0216 | NNE | 20 | 71 | 31 | 45.3 | 0.0 | 13.1 |
| 8/14/26 | 64.0 | 1525 | 49.5 | 0341 | 0.00 | 102.70 | 11.5 | 27.8 | 0516 | SSW | 207 | 79 | 46 | 47.6 | 0.0 | 13.1 |
| 8/13/26 | 63.0 | 1254 | 52.0 | 2356 | 0.00 | 102.70 | 12.0 | 33.0 | 1508 | WSW | 242 | 76 | 55 | 49.9 | 0.0 | 13.1 |
| 8/12/26 | 69.3 | 1640 | 57.4 | 2359 | 0.00 | 102.70 | 11.3 | 30.6 | 1231 | SW | 227 | 64 | 19 | 48.9 | 0.0 | 13.0 |
| 8/11/26 | 77.2 | 1513 | 61.3 | 2211 | 0.00 | 102.70 | 11.9 | 25.0 | 0303 | SSE | 151 | 35 | 16 | 47.7 | 0.0 | 13.0 |
| 8/10/26 | 77.7 | 1154 | 63.4 | 2106 | 0.00 | 102.70 | 10.4 | 26.5 | 1400 | SW | 234 | 42 | 19 | 49.9 | 0.0 | 13.0 |
| 8/9/26 | 83.4 | 1450 | 65.7 | 2111 | 0.00 | 102.70 | 5.9 | 19.9 | 1522 | NW | 309 | 36 | 16 | 50.6 | 0.0 | 13.0 |
| 8/8/26 | 85.3 | 1608 | 66.8 | 2357 | 0.00 | 102.70 | 5.3 | 17.7 | 1845 | WNW | 289 | 40 | 21 | 53.2 | 0.0 | 13.0 |
| 8/7/26 | 87.8 | 1633 | 66.5 | 0124 | 0.00 | 102.70 | 5.9 | 19.9 | 1447 | NNW | 348 | 39 | 17 | 52.6 | 0.0 | 13.0 |
| Max | 87.8 | - | 66.8 | - | 0.14 | 103.00 | 14.0 | 52.7 | - | - | 100 | 89 | 53.2 | 0.0 | 13.3 |
| Avg | - | - | - | - | - | - | 9.9 | - | - | - | - | - | 47.0 | - | - |
| Min | 44.1 | - | 36.3 | - | 0.00 | 102.70 | 5.3 | 17.7 | - | - | 35 | 16 | 37.6 | 0.0 | 12.6 |